Time;durP1;ratioP1;P1;durP2;ratioP2;P2;SDS_P1;SDS_P2;PMS_P1;PMS_P2;Temp;Humidity;BMP_temperature;BMP_pressure;BME280_temperature;BME280_humidity;BME280_pressure;Samples;Min_cycle;Max_cycle;Signal;HPM_P1;HPM_P2
2022/08/06 00:00:45;;;;;;;7.97;5.40;;;;;;;23.10;46.90;94769.94;4982682;28;20228;-64
2022/08/06 00:03:10;;;;;;;6.65;5.50;;;;;;;23.00;46.69;94771.59;4976695;28;20228;-65
2022/08/06 00:05:36;;;;;;;6.05;5.45;;;;;;;23.10;46.30;94775.31;4978204;28;20291;-65
2022/08/06 00:08:01;;;;;;;6.60;5.65;;;;;;;22.98;46.16;94776.34;4981212;28;20216;-64
2022/08/06 00:10:27;;;;;;;6.93;5.25;;;;;;;23.00;45.97;94774.28;4975623;28;20243;-65
2022/08/06 00:12:52;;;;;;;5.90;5.18;;;;;;;22.93;45.95;94779.69;4975130;28;20220;-65
2022/08/06 00:15:18;;;;;;;4.78;4.38;;;;;;;22.89;45.42;94778.56;4974528;28;20695;-64
2022/08/06 00:17:45;;;;;;;5.07;4.50;;;;;;;22.93;44.81;94782.38;4990933;28;20234;-64
2022/08/06 00:20:12;;;;;;;6.35;4.30;;;;;;;22.78;44.97;94777.50;5008741;28;20686;-65
2022/08/06 00:22:38;;;;;;;6.18;4.20;;;;;;;22.66;45.19;94771.31;4990651;28;20203;-65
2022/08/06 00:25:04;;;;;;;5.55;4.88;;;;;;;22.77;44.89;94778.53;4987450;28;20552;-64
2022/08/06 00:27:29;;;;;;;4.47;4.00;;;;;;;22.81;44.60;94782.41;4999465;28;20234;-64
2022/08/06 00:29:55;;;;;;;4.90;4.45;;;;;;;22.81;44.39;94776.22;4987903;28;20215;-65
2022/08/06 00:32:20;;;;;;;4.18;3.78;;;;;;;22.74;44.14;94776.34;4980040;28;20229;-64
2022/08/06 00:34:46;;;;;;;4.15;3.75;;;;;;;22.77;44.12;94777.72;4990786;28;20275;-64
2022/08/06 00:37:12;;;;;;;7.57;4.22;;;;;;;22.82;43.82;94783.22;4989743;28;20215;-64
2022/08/06 00:39:37;;;;;;;4.70;4.30;;;;;;;22.76;44.40;94778.78;4985658;28;20231;-64
2022/08/06 00:42:03;;;;;;;4.85;4.28;;;;;;;22.77;44.50;94783.91;4988760;28;20282;-64
2022/08/06 00:44:29;;;;;;;4.43;4.03;;;;;;;22.92;44.10;94782.63;4984556;28;20212;-64
2022/08/06 00:46:54;;;;;;;5.60;4.70;;;;;;;22.52;45.04;94772.63;4973256;28;20207;-64
2022/08/06 00:49:19;;;;;;;4.25;3.95;;;;;;;22.64;44.96;94779.63;4983605;28;20227;-64
2022/08/06 00:51:45;;;;;;;6.25;4.25;;;;;;;22.52;45.70;94777.97;4987820;28;20224;-63
2022/08/06 00:54:10;;;;;;;4.53;4.18;;;;;;;22.12;46.95;94776.69;4987894;28;20227;-64
2022/08/06 00:56:36;;;;;;;5.90;5.40;;;;;;;22.15;48.04;94778.09;4984276;28;20234;-64
2022/08/06 00:59:03;;;;;;;8.13;5.80;;;;;;;22.33;47.82;94783.41;4979325;28;20199;-64
2022/08/06 01:01:28;;;;;;;8.10;5.75;;;;;;;22.35;47.63;94784.00;4974206;28;20216;-63
2022/08/06 01:03:54;;;;;;;5.75;5.22;;;;;;;22.34;47.42;94779.69;4987666;28;20227;-63
2022/08/06 01:06:20;;;;;;;7.00;5.60;;;;;;;22.31;47.52;94785.50;4991322;28;20236;-64
2022/08/06 01:08:45;;;;;;;7.07;6.38;;;;;;;22.29;47.99;94781.41;4980436;28;21072;-64
2022/08/06 01:11:11;;;;;;;8.63;6.72;;;;;;;22.34;48.36;94785.03;4990676;28;20234;-63
2022/08/06 01:13:37;;;;;;;8.25;6.95;;;;;;;22.26;48.55;94777.34;5009538;28;20257;-63
2022/08/06 01:16:26;;;;;;;6.97;5.47;;;;;;;22.25;48.00;94775.72;4997299;28;20252;-64
2022/08/06 01:18:51;;;;;;;7.20;5.10;;;;;;;22.19;48.18;94773.97;4985632;28;20348;-65
2022/08/06 01:21:41;;;;;;;6.80;5.68;;;;;;;22.16;48.15;94774.38;4993437;28;20257;-64
2022/08/06 01:24:33;;;;;;;6.55;4.68;;;;;;;22.06;48.36;94779.50;4996605;28;20655;-64
2022/08/06 01:27:21;;;;;;;6.70;4.30;;;;;;;21.92;48.51;94777.00;4984796;28;20247;-64
2022/08/06 01:29:51;;;;;;;5.95;4.85;;;;;;;21.99;48.35;94769.69;4982329;28;20229;-64
2022/08/06 01:32:25;;;;;;;5.13;4.72;;;;;;;22.10;47.65;94773.44;5004862;28;20314;-64
2022/08/06 01:34:58;;;;;;;4.88;4.38;;;;;;;22.07;47.84;94776.56;5020370;28;20302;-64
2022/08/06 01:37:41;;;;;;;5.82;5.18;;;;;;;21.91;48.85;94772.69;5006883;28;20242;-64
2022/08/06 01:40:14;;;;;;;7.15;4.50;;;;;;;21.94;48.54;94774.91;5003893;28;20266;-64
2022/08/06 01:42:43;;;;;;;4.40;4.10;;;;;;;21.86;48.14;94771.75;5003730;28;20219;-64
2022/08/06 01:45:13;;;;;;;4.80;4.32;;;;;;;21.91;48.36;94767.34;4995679;28;20230;-64
2022/08/06 01:47:42;;;;;;;5.47;5.07;;;;;;;21.90;49.25;94770.25;4989421;28;20230;-64
2022/08/06 01:50:09;;;;;;;8.30;6.22;;;;;;;21.84;50.09;94771.97;5001467;28;20211;-64
2022/08/06 01:52:38;;;;;;;8.75;6.72;;;;;;;22.00;49.40;94765.97;4985010;28;20219;-64
2022/08/06 01:55:07;;;;;;;8.18;5.95;;;;;;;21.93;49.52;94767.94;4985523;28;20858;-64
2022/08/06 01:57:34;;;;;;;6.68;5.95;;;;;;;21.63;50.58;94767.13;4988995;28;20286;-64
2022/08/06 02:00:01;;;;;;;6.85;6.00;;;;;;;21.80;50.29;94766.25;4986158;28;20232;-64
2022/08/06 02:02:28;;;;;;;7.18;6.47;;;;;;;21.75;51.16;94766.13;4988413;28;20246;-64
2022/08/06 02:04:58;;;;;;;6.97;6.15;;;;;;;21.57;51.43;94756.28;4977756;28;20204;-65
2022/08/06 02:07:29;;;;;;;8.00;5.80;;;;;;;21.64;51.21;94760.72;4984298;28;20231;-64
2022/08/06 02:09:56;;;;;;;6.47;5.85;;;;;;;21.64;51.25;94760.72;4976035;28;20238;-64
2022/08/06 02:12:25;;;;;;;6.97;5.82;;;;;;;21.74;50.79;94753.78;4977702;28;20220;-64
2022/08/06 02:14:58;;;;;;;6.70;6.00;;;;;;;21.54;51.63;94751.41;4974225;28;20601;-65
2022/08/06 02:17:27;;;;;;;7.15;6.43;;;;;;;21.49;52.23;94753.09;4976461;28;20263;-63
2022/08/06 02:19:59;;;;;;;7.70;6.40;;;;;;;21.55;51.69;94747.66;4977563;28;20225;-63
2022/08/06 02:22:26;;;;;;;8.68;6.38;;;;;;;21.78;50.90;94748.78;4979107;28;20240;-64
2022/08/06 02:24:51;;;;;;;7.45;6.03;;;;;;;21.74;51.69;94742.28;5004166;28;20223;-64
2022/08/06 02:27:19;;;;;;;8.93;6.05;;;;;;;21.77;51.49;94745.28;4991254;28;20242;-64
2022/08/06 02:29:47;;;;;;;8.25;5.93;;;;;;;21.75;51.50;94742.03;4993488;28;20239;-64
2022/08/06 02:32:14;;;;;;;8.68;6.03;;;;;;;21.68;51.68;94737.81;4988998;28;20225;-63
2022/08/06 02:34:40;;;;;;;7.38;5.68;;;;;;;21.67;51.83;94739.66;4987939;28;20327;-63
2022/08/06 02:37:23;;;;;;;8.38;6.18;;;;;;;21.59;52.07;94740.00;4994270;28;20318;-63
2022/08/06 02:40:01;;;;;;;6.80;6.20;;;;;;;21.49;52.21;94748.59;4994626;28;20259;-63
2022/08/06 02:42:32;;;;;;;8.23;6.50;;;;;;;21.48;52.24;94746.94;5005753;28;20219;-63
2022/08/06 02:45:09;;;;;;;7.32;5.82;;;;;;;21.17;53.54;94749.75;5003931;28;20226;-63
2022/08/06 02:47:45;;;;;;;6.65;6.03;;;;;;;21.04;53.83;94751.56;5004358;28;20223;-63
2022/08/06 02:50:14;;;;;;;6.70;5.30;;;;;;;20.87;54.49;94748.66;5006994;28;20210;-64
2022/08/06 02:52:44;;;;;;;6.72;6.00;;;;;;;21.02;53.98;94755.50;5007126;28;20203;-64
2022/08/06 02:55:23;;;;;;;7.22;6.22;;;;;;;21.07;53.76;94751.13;5006002;28;20242;-64
2022/08/06 02:57:52;;;;;;;7.47;6.47;;;;;;;21.09;53.39;94754.38;5004995;28;20227;-64
2022/08/06 03:00:18;;;;;;;7.70;6.97;;;;;;;21.14;53.54;94751.88;5002633;28;20237;-64
2022/08/06 03:02:45;;;;;;;7.05;6.22;;;;;;;21.11;53.95;94762.97;5006504;28;20227;-64
2022/08/06 03:05:15;;;;;;;8.07;6.28;;;;;;;21.19;53.58;94769.88;5001664;28;20210;-64
2022/08/06 03:07:42;;;;;;;7.97;6.60;;;;;;;21.24;53.64;94769.22;4996933;28;20207;-64
2022/08/06 03:10:09;;;;;;;6.90;6.25;;;;;;;21.11;53.81;94768.31;4991373;28;20581;-64
2022/08/06 03:12:36;;;;;;;7.45;6.68;;;;;;;21.07;53.80;94766.34;4996186;28;20238;-64
2022/08/06 03:15:03;;;;;;;6.70;6.18;;;;;;;21.09;53.67;94765.09;5002376;28;20274;-64
2022/08/06 03:17:31;;;;;;;7.10;6.40;;;;;;;21.17;53.51;94763.97;4988208;28;20310;-64
2022/08/06 03:19:59;;;;;;;8.40;6.40;;;;;;;21.20;53.42;94771.53;4985420;28;20262;-64
2022/08/06 03:22:27;;;;;;;9.15;6.15;;;;;;;21.10;53.64;94772.06;4987485;28;20302;-64
2022/08/06 03:24:53;;;;;;;7.25;5.95;;;;;;;20.87;53.86;94770.03;5001187;28;20236;-65
2022/08/06 03:27:21;;;;;;;7.78;5.55;;;;;;;20.95;53.65;94768.91;5009464;28;20222;-63
2022/08/06 03:29:49;;;;;;;8.85;7.10;;;;;;;21.00;53.87;94771.75;5004954;28;20223;-64
2022/08/06 03:32:16;;;;;;;7.47;6.57;;;;;;;21.06;53.54;94765.53;4991977;28;20269;-64
2022/08/06 03:34:43;;;;;;;8.02;7.18;;;;;;;21.03;53.33;94765.13;4989774;28;20258;-65
2022/08/06 03:37:09;;;;;;;7.30;6.70;;;;;;;21.06;53.45;94765.53;4990955;28;20330;-64
2022/08/06 03:39:38;;;;;;;7.28;6.50;;;;;;;20.99;53.64;94761.28;4983762;28;20236;-64
2022/08/06 03:42:05;;;;;;;9.30;6.88;;;;;;;21.02;53.75;94767.00;4986000;28;20310;-64
2022/08/06 03:44:30;;;;;;;8.10;6.78;;;;;;;20.95;53.72;94768.91;4975816;28;20224;-64
2022/08/06 03:47:11;;;;;;;6.88;6.28;;;;;;;21.03;53.53;94765.13;4984934;28;20302;-65
2022/08/06 03:49:41;;;;;;;7.20;6.50;;;;;;;20.95;53.77;94763.56;4991970;28;20227;-64
2022/08/06 03:52:10;;;;;;;7.95;6.53;;;;;;;20.95;53.90;94763.56;5003367;28;20284;-64
2022/08/06 03:54:54;;;;;;;8.10;6.22;;;;;;;20.99;54.14;94767.44;5002564;28;20232;-64
2022/08/06 03:57:24;;;;;;;8.32;7.15;;;;;;;20.98;54.32;94765.78;4980667;28;20227;-61
2022/08/06 03:59:53;;;;;;;6.97;6.25;;;;;;;20.81;55.24;94770.09;4979966;28;20216;-61
2022/08/06 04:02:20;;;;;;;7.75;6.95;;;;;;;21.06;54.29;94764.69;4988616;28;20210;-61
2022/08/06 04:04:47;;;;;;;7.35;6.65;;;;;;;21.18;53.64;94778.16;4993021;28;20212;-61
2022/08/06 04:07:15;;;;;;;8.23;6.30;;;;;;;21.02;54.12;94779.56;4982169;28;20231;-60
2022/08/06 04:09:41;;;;;;;8.77;6.50;;;;;;;20.88;54.57;94778.88;5004001;28;20224;-61
2022/08/06 04:12:08;;;;;;;10.05;6.82;;;;;;;20.67;55.57;94786.25;5007319;28;20227;-60
2022/08/06 04:14:34;;;;;;;7.80;6.75;;;;;;;20.55;56.22;94776.50;5004456;28;20247;-61
2022/08/06 04:17:03;;;;;;;7.13;6.57;;;;;;;20.69;55.92;94788.72;5005748;28;20212;-60
2022/08/06 04:19:30;;;;;;;7.53;6.82;;;;;;;20.72;55.82;94790.16;4984141;28;20226;-60
2022/08/06 04:21:56;;;;;;;7.43;6.38;;;;;;;20.66;55.71;94787.31;4989334;28;20605;-61
2022/08/06 04:24:21;;;;;;;8.20;7.50;;;;;;;20.89;54.88;94786.66;4992208;28;20310;-60
2022/08/06 04:26:51;;;;;;;7.90;6.45;;;;;;;20.83;55.38;94784.88;4989861;28;20232;-61
2022/08/06 04:29:19;;;;;;;7.22;6.53;;;;;;;20.84;55.05;94789.19;4991642;28;20195;-60
2022/08/06 04:31:47;;;;;;;7.18;6.50;;;;;;;20.88;54.86;94792.25;4985808;28;20205;-60
2022/08/06 04:34:18;;;;;;;9.23;7.10;;;;;;;20.98;54.31;94797.06;4978953;28;20302;-60
2022/08/06 04:36:45;;;;;;;8.88;7.95;;;;;;;21.00;54.47;94793.13;4998269;28;20250;-60
2022/08/06 04:39:11;;;;;;;8.77;7.00;;;;;;;20.95;55.06;94789.50;4997090;28;20297;-60
2022/08/06 04:41:36;;;;;;;8.70;7.60;;;;;;;20.90;55.49;94800.84;4984673;28;20300;-61
2022/08/06 04:44:02;;;;;;;8.52;7.70;;;;;;;21.16;54.66;94802.41;4982871;28;20199;-60
2022/08/06 04:46:28;;;;;;;8.80;7.40;;;;;;;21.31;54.26;94805.53;4995470;28;20322;-61
2022/08/06 04:48:53;;;;;;;8.05;7.30;;;;;;;21.29;54.37;94807.63;4978300;28;20618;-60
2022/08/06 04:51:22;;;;;;;8.07;7.25;;;;;;;21.37;54.00;94809.19;5004257;28;20226;-60
2022/08/06 04:53:47;;;;;;;7.72;7.03;;;;;;;21.55;52.76;94805.72;5002439;28;20242;-61
2022/08/06 04:56:13;;;;;;;8.38;7.57;;;;;;;21.65;52.45;94813.19;5006864;28;20241;-60
2022/08/06 04:58:38;;;;;;;9.82;8.73;;;;;;;21.49;52.33;94809.25;5005419;28;20211;-60
2022/08/06 05:01:04;;;;;;;8.98;8.07;;;;;;;21.66;51.44;94812.16;5004242;28;20281;-60
2022/08/06 05:03:30;;;;;;;8.98;8.13;;;;;;;21.66;51.42;94814.84;4993978;28;20254;-60
2022/08/06 05:06:33;;;;;;;9.85;7.85;;;;;;;21.89;50.81;94817.63;4992593;28;20234;-60
2022/08/06 05:09:04;;;;;;;8.85;8.02;;;;;;;21.75;50.80;94816.16;4987502;28;20224;-61
2022/08/06 05:11:40;;;;;;;9.60;7.45;;;;;;;21.84;49.80;94820.16;4995378;28;20230;-61
2022/08/06 05:14:13;;;;;;;7.95;6.93;;;;;;;21.67;49.93;94814.59;4999338;28;20232;-61
2022/08/06 05:16:41;;;;;;;29.65;8.05;;;;;;;21.84;49.11;94819.31;5002767;28;20223;-62
2022/08/06 05:19:19;;;;;;;13.50;7.78;;;;;;;21.96;48.74;94812.97;5004362;28;20302;-62
2022/08/06 05:21:47;;;;;;;7.93;7.13;;;;;;;22.05;48.86;94815.31;4997840;28;20265;-61
2022/08/06 05:24:13;;;;;;;7.65;6.93;;;;;;;22.01;48.75;94812.31;4989863;28;20249;-61
2022/08/06 05:26:38;;;;;;;10.63;8.27;;;;;;;22.26;48.26;94812.16;5000898;28;20255;-62
2022/08/06 05:29:04;;;;;;;8.20;7.40;;;;;;;22.30;48.19;94805.31;4996960;28;20218;-62
2022/08/06 05:31:35;;;;;;;8.18;7.45;;;;;;;22.32;48.05;94813.09;5005856;28;20226;-63
2022/08/06 05:34:02;;;;;;;8.27;7.47;;;;;;;22.26;48.50;94820.19;5007098;28;20226;-63
2022/08/06 05:36:27;;;;;;;8.05;7.35;;;;;;;22.15;49.71;94816.41;5003230;28;20230;-63
2022/08/06 05:38:53;;;;;;;9.02;7.88;;;;;;;22.41;49.36;94817.09;4999551;28;20229;-62
2022/08/06 05:41:18;;;;;;;8.70;8.00;;;;;;;22.30;49.17;94813.34;5001523;28;20207;-62
2022/08/06 05:43:44;;;;;;;8.05;7.25;;;;;;;22.47;46.77;94821.53;4999871;28;20238;-62
2022/08/06 05:46:13;;;;;;;8.43;7.55;;;;;;;22.48;46.83;94823.19;5003052;28;20223;-61
2022/08/06 05:49:04;;;;;;;11.52;8.15;;;;;;;22.50;46.40;94815.69;5012443;28;20226;-62
2022/08/06 05:52:14;;;;;;;8.98;7.18;;;;;;;22.51;46.93;94824.53;4994361;28;20223;-62
2022/08/06 05:54:52;;;;;;;7.13;6.43;;;;;;;22.52;48.61;94815.47;4991095;28;20316;-63
2022/08/06 05:57:32;;;;;;;7.03;6.43;;;;;;;22.44;46.80;94814.75;4993790;28;20226;-61
2022/08/06 06:00:11;;;;;;;7.28;6.63;;;;;;;22.59;46.17;94813.53;4994373;28;20288;-61
2022/08/06 06:02:41;;;;;;;7.43;6.70;;;;;;;22.57;46.75;94812.94;4983534;28;20233;-62
2022/08/06 06:05:08;;;;;;;7.35;6.78;;;;;;;22.51;47.22;94813.84;5000468;28;20227;-61
2022/08/06 06:07:35;;;;;;;8.13;7.20;;;;;;;22.64;47.54;94808.25;5004135;28;20210;-61
2022/08/06 06:10:02;;;;;;;7.60;6.90;;;;;;;22.71;46.67;94811.66;4994279;28;20219;-61
2022/08/06 06:12:29;;;;;;;8.23;7.28;;;;;;;22.72;47.96;94805.25;4982836;28;20229;-61
2022/08/06 06:14:55;;;;;;;7.75;7.10;;;;;;;22.86;47.34;94812.00;4996923;28;20239;-63
2022/08/06 06:17:40;;;;;;;7.88;7.18;;;;;;;22.63;48.18;94806.63;4998486;28;20223;-62
2022/08/06 06:20:18;;;;;;;8.32;7.20;;;;;;;22.75;47.60;94807.47;4999481;28;20206;-60
2022/08/06 06:23:13;;;;;;;8.18;7.40;;;;;;;22.83;47.88;94800.94;4986498;28;20226;-67
2022/08/06 06:26:02;;;;;;;8.98;8.10;;;;;;;23.03;48.76;94808.66;4987238;28;20226;-67
2022/08/06 06:28:54;;;;;;;8.60;7.82;;;;;;;23.08;48.73;94804.22;4991850;28;20289;-66
2022/08/06 06:31:26;;;;;;;7.90;7.10;;;;;;;23.32;47.08;94802.31;4930865;28;20216;-64
2022/08/06 06:34:13;;;;;;;8.80;7.40;;;;;;;23.31;47.99;94799.88;4951775;28;20221;-63
2022/08/06 06:37:00;;;;;;;8.55;7.10;;;;;;;23.30;47.86;94799.03;4950793;28;20232;-62
2022/08/06 06:39:38;;;;;;;7.40;6.80;;;;;;;23.41;47.18;94792.03;4932991;28;20227;-67
2022/08/06 06:42:22;;;;;;;8.57;7.45;;;;;;;23.31;47.94;94786.47;4947862;28;20246;-62
2022/08/06 06:44:57;;;;;;;8.73;7.55;;;;;;;23.27;48.60;94791.47;4928600;28;20239;-63
2022/08/06 06:47:49;;;;;;;7.90;7.20;;;;;;;23.33;49.01;94790.56;4948021;28;20208;-62
2022/08/06 06:50:22;;;;;;;7.60;7.00;;;;;;;23.36;48.64;94783.06;4950174;28;20212;-63
2022/08/06 06:52:51;;;;;;;8.05;7.28;;;;;;;23.45;49.83;94792.38;4932923;28;20216;-63
2022/08/06 06:55:27;;;;;;;7.72;6.97;;;;;;;23.46;50.64;94786.75;4949753;28;20236;-63
2022/08/06 06:57:58;;;;;;;7.65;6.95;;;;;;;23.50;48.30;94779.06;4934648;29;20224;-62
2022/08/06 07:00:24;;;;;;;7.28;6.57;;;;;;;23.73;49.49;94784.38;4937822;29;20224;-63
2022/08/06 07:02:52;;;;;;;7.53;6.88;;;;;;;23.68;45.67;94781.59;4955135;28;20232;-62
2022/08/06 07:05:20;;;;;;;8.02;7.32;;;;;;;23.71;46.50;94774.88;4948301;28;20226;-62
2022/08/06 07:07:47;;;;;;;7.68;6.60;;;;;;;23.83;46.82;94782.94;4958478;28;20269;-62
2022/08/06 07:10:14;;;;;;;8.43;6.47;;;;;;;23.98;45.17;94785.91;4993633;28;20225;-61
2022/08/06 07:12:44;;;;;;;7.32;6.43;;;;;;;23.96;48.13;94771.91;4988277;28;20231;-62
2022/08/06 07:15:12;;;;;;;7.05;6.45;;;;;;;23.83;46.09;94777.56;4970457;28;20250;-62
2022/08/06 07:17:39;;;;;;;8.10;6.60;;;;;;;24.08;44.48;94769.16;4986879;28;20224;-63
2022/08/06 07:20:11;;;;;;;7.05;6.45;;;;;;;24.18;46.93;94780.88;5009494;28;20202;-63
2022/08/06 07:22:41;;;;;;;7.53;5.97;;;;;;;24.25;44.57;94772.69;5004706;28;20239;-63
2022/08/06 07:25:09;;;;;;;7.47;6.07;;;;;;;24.23;43.54;94768.63;4988309;28;20216;-62
2022/08/06 07:27:38;;;;;;;7.32;6.25;;;;;;;24.29;46.12;94767.63;4990966;28;20223;-64
2022/08/06 07:30:05;;;;;;;7.13;6.13;;;;;;;24.30;44.36;94756.66;4995673;28;20234;-66
2022/08/06 07:32:33;;;;;;;7.53;6.60;;;;;;;24.35;45.40;94766.66;4993544;28;20229;-65
2022/08/06 07:35:00;;;;;;;8.30;5.80;;;;;;;24.45;44.47;94758.78;4994734;28;20273;-65
2022/08/06 07:37:26;;;;;;;7.43;6.00;;;;;;;24.54;45.20;94754.66;4989087;28;20239;-67
2022/08/06 07:39:55;;;;;;;7.78;5.53;;;;;;;24.77;45.84;94750.13;4986960;28;20219;-67
2022/08/06 07:42:24;;;;;;;8.70;6.05;;;;;;;24.85;46.72;94750.53;4993100;28;20329;-67
2022/08/06 07:44:52;;;;;;;6.15;5.20;;;;;;;25.00;46.04;94749.94;4986378;28;20227;-67
2022/08/06 07:47:21;;;;;;;6.55;5.95;;;;;;;24.96;45.38;94753.34;4986590;28;20219;-69
2022/08/06 07:49:52;;;;;;;6.30;5.75;;;;;;;25.02;43.82;94747.81;4978669;28;20214;-70
2022/08/06 07:52:18;;;;;;;7.32;6.55;;;;;;;25.07;46.22;94747.88;4977302;28;20275;-61
2022/08/06 07:54:45;;;;;;;6.65;6.05;;;;;;;25.09;45.00;94751.13;4979422;28;20228;-65
2022/08/06 07:57:11;;;;;;;6.68;6.07;;;;;;;25.21;46.62;94752.94;4990991;28;20307;-61
2022/08/06 07:59:36;;;;;;;7.15;6.43;;;;;;;25.40;43.58;94748.88;4975472;28;20220;-62
2022/08/06 08:02:03;;;;;;;7.30;5.95;;;;;;;25.54;43.82;94749.28;4983539;28;20210;-61
2022/08/06 08:07:15;;;;;;;9.32;6.38;;;;;;;25.41;43.24;94747.78;4978575;28;20328;-60
2022/08/06 08:09:43;;;;;;;6.32;5.70;;;;;;;25.44;44.91;94744.59;5011587;28;20249;-60
2022/08/06 08:12:13;;;;;;;5.55;5.10;;;;;;;25.50;44.66;94748.16;5007786;28;20219;-59
2022/08/06 08:14:42;;;;;;;7.13;5.60;;;;;;;25.62;43.66;94746.16;5007625;28;21070;-59
2022/08/06 08:17:08;;;;;;;6.68;5.43;;;;;;;25.74;42.71;94743.31;5004582;28;20378;-60
2022/08/06 08:19:33;;;;;;;7.68;4.90;;;;;;;25.79;41.27;94740.66;5001241;28;20263;-62
2022/08/06 08:22:02;;;;;;;5.63;5.13;;;;;;;25.65;43.34;94744.84;5005604;28;20239;-61
2022/08/06 08:24:28;;;;;;;7.30;5.90;;;;;;;25.75;45.24;94745.75;4994076;28;20219;-61
2022/08/06 08:26:55;;;;;;;5.95;4.78;;;;;;;25.94;41.63;94737.34;4989266;28;20228;-61
2022/08/06 08:29:21;;;;;;;4.75;4.38;;;;;;;25.97;40.54;94742.22;4994837;28;20555;-61
2022/08/06 08:31:46;;;;;;;4.90;4.53;;;;;;;26.14;40.89;94739.41;5006782;28;20199;-61
2022/08/06 08:34:12;;;;;;;5.60;5.18;;;;;;;26.24;42.50;94741.41;4982452;28;20334;-61
2022/08/06 08:36:40;;;;;;;6.55;5.35;;;;;;;26.19;41.91;94742.16;4989376;28;20231;-62
2022/08/06 08:39:06;;;;;;;4.72;4.28;;;;;;;26.25;41.09;94734.94;4988814;28;20231;-61
2022/08/06 08:41:50;;;;;;;5.47;4.93;;;;;;;26.10;42.93;94741.81;4992253;28;20280;-61
2022/08/06 08:44:24;;;;;;;5.70;5.20;;;;;;;26.28;42.16;94747.91;5011244;28;20210;-60
2022/08/06 08:46:51;;;;;;;4.97;4.57;;;;;;;26.49;39.58;94741.63;4995705;28;20223;-60
2022/08/06 08:49:20;;;;;;;5.68;4.53;;;;;;;26.52;39.75;94737.63;4984438;28;20231;-59
2022/08/06 08:51:46;;;;;;;5.03;4.63;;;;;;;26.61;40.62;94738.75;4999926;28;20227;-60
2022/08/06 08:54:16;;;;;;;5.70;5.20;;;;;;;26.79;38.22;94732.94;5000428;28;20247;-61
2022/08/06 08:56:43;;;;;;;5.22;4.72;;;;;;;26.87;38.60;94730.84;4989227;28;20223;-60
2022/08/06 08:59:09;;;;;;;4.72;4.32;;;;;;;26.87;38.63;94739.75;4988765;28;20241;-59
2022/08/06 09:01:35;;;;;;;4.95;4.55;;;;;;;26.81;38.63;94736.22;5009853;28;20238;-60
2022/08/06 09:04:04;;;;;;;3.90;3.60;;;;;;;26.81;37.60;94727.28;4986515;28;20236;-61
2022/08/06 09:06:32;;;;;;;6.30;3.83;;;;;;;26.87;37.24;94739.75;4989363;28;20235;-61
2022/08/06 09:09:03;;;;;;;4.50;3.97;;;;;;;26.94;39.03;94729.53;4974882;28;20227;-60
2022/08/06 09:11:32;;;;;;;4.78;4.07;;;;;;;26.92;40.27;94731.69;4988652;28;20226;-60
2022/08/06 09:14:06;;;;;;;4.00;3.60;;;;;;;27.09;35.50;94726.09;5001630;28;20640;-61
2022/08/06 09:16:34;;;;;;;7.70;4.00;;;;;;;27.19;38.16;94725.38;4994739;28;20218;-60
2022/08/06 09:19:01;;;;;;;4.85;4.45;;;;;;;27.30;37.00;94718.94;4982369;28;20262;-62
2022/08/06 09:21:27;;;;;;;4.80;3.92;;;;;;;27.45;36.73;94726.28;4985511;28;20278;-61
2022/08/06 09:23:53;;;;;;;7.15;4.85;;;;;;;27.45;36.35;94721.72;4983709;28;20310;-62
2022/08/06 09:26:18;;;;;;;4.65;3.58;;;;;;;27.55;35.32;94726.31;4987055;28;20571;-62
2022/08/06 09:28:44;;;;;;;4.35;3.95;;;;;;;27.58;36.29;94717.69;5005213;28;20298;-61
2022/08/06 09:31:14;;;;;;;4.40;3.92;;;;;;;27.64;36.25;94718.50;4994842;28;20222;-62
2022/08/06 09:34:01;;;;;;;6.97;4.25;;;;;;;27.98;33.61;94710.78;4986276;28;20231;-61
2022/08/06 09:36:28;;;;;;;5.03;4.03;;;;;;;28.17;33.23;94707.56;4992034;28;20239;-60
2022/08/06 09:38:59;;;;;;;5.18;3.92;;;;;;;28.19;34.20;94708.91;4978105;28;20219;-60
2022/08/06 09:41:27;;;;;;;5.63;4.13;;;;;;;28.37;33.20;94712.97;4990701;28;20306;-61
2022/08/06 09:43:54;;;;;;;5.25;3.83;;;;;;;28.45;34.00;94717.06;5007243;28;20674;-61
2022/08/06 09:46:41;;;;;;;3.95;3.63;;;;;;;28.48;33.15;94708.41;5007347;28;20226;-61
2022/08/06 09:49:08;;;;;;;4.60;4.30;;;;;;;28.59;33.64;94705.41;4989768;28;20734;-61
2022/08/06 09:51:34;;;;;;;4.13;3.83;;;;;;;28.70;33.68;94706.22;4984970;28;20640;-61
2022/08/06 09:54:02;;;;;;;4.18;3.88;;;;;;;28.85;33.02;94701.88;4982569;28;20322;-61
2022/08/06 09:56:27;;;;;;;4.40;3.65;;;;;;;28.99;32.23;94705.59;4975469;28;20235;-61
2022/08/06 09:59:02;;;;;;;4.10;3.72;;;;;;;29.27;32.27;94697.97;4972709;28;20247;-61
2022/08/06 10:01:28;;;;;;;4.30;3.90;;;;;;;29.41;31.83;94694.38;4973044;28;20322;-60
2022/08/06 10:03:57;;;;;;;4.13;3.80;;;;;;;29.49;32.46;94700.31;4982456;28;20223;-60
2022/08/06 10:06:25;;;;;;;3.92;3.63;;;;;;;29.70;31.21;94701.88;4973840;28;20338;-60
2022/08/06 10:09:05;;;;;;;4.00;3.70;;;;;;;30.09;29.67;94696.44;4978760;28;20219;-60
2022/08/06 10:11:35;;;;;;;4.20;3.80;;;;;;;30.22;27.04;94695.00;4972038;28;20225;-61
2022/08/06 10:14:00;;;;;;;3.90;3.70;;;;;;;30.19;29.01;94692.84;5011486;28;20289;-61
2022/08/06 10:16:29;;;;;;;4.32;3.67;;;;;;;30.32;29.50;94686.81;5005568;28;20351;-62
2022/08/06 10:18:57;;;;;;;4.65;3.72;;;;;;;30.40;29.61;94698.16;4989717;28;20302;-61
2022/08/06 10:21:32;;;;;;;4.32;3.92;;;;;;;30.66;28.42;94685.97;4984972;28;20227;-61
2022/08/06 10:24:02;;;;;;;4.57;4.18;;;;;;;30.62;27.23;94682.22;4983238;28;20221;-61
2022/08/06 10:26:32;;;;;;;4.20;3.72;;;;;;;30.61;29.71;94677.06;4984144;28;20727;-62
2022/08/06 10:29:07;;;;;;;4.28;3.85;;;;;;;30.75;28.83;94678.03;4988324;28;20214;-62
2022/08/06 10:31:35;;;;;;;3.70;3.40;;;;;;;30.87;27.14;94683.88;4993491;28;20220;-62
2022/08/06 10:34:09;;;;;;;4.05;3.75;;;;;;;30.93;27.42;94680.03;4986473;28;20737;-64
2022/08/06 10:36:39;;;;;;;3.97;3.67;;;;;;;30.95;28.19;94677.00;5005238;28;20226;-64
2022/08/06 10:39:07;;;;;;;4.00;3.63;;;;;;;31.29;27.03;94666.03;4986633;28;20228;-61
2022/08/06 10:41:35;;;;;;;3.88;3.58;;;;;;;31.48;27.69;94676.16;4984156;28;20247;-61
2022/08/06 10:44:02;;;;;;;4.07;3.72;;;;;;;31.60;27.30;94680.06;4988218;28;20334;-61
2022/08/06 10:46:28;;;;;;;4.30;3.90;;;;;;;31.39;25.52;94670.56;5003669;28;20251;-61
2022/08/06 10:48:54;;;;;;;3.80;3.50;;;;;;;31.48;25.60;94666.09;4990722;28;20325;-63
2022/08/06 10:51:20;;;;;;;3.60;3.30;;;;;;;31.63;26.26;94674.03;5000671;28;20242;-62
2022/08/06 10:53:46;;;;;;;3.97;3.58;;;;;;;31.69;26.47;94674.78;5010228;28;20231;-61
2022/08/06 10:56:14;;;;;;;4.05;3.63;;;;;;;31.96;25.64;94665.97;4989284;28;20265;-60
2022/08/06 10:58:40;;;;;;;4.53;3.40;;;;;;;32.03;26.19;94666.44;5008467;28;20211;-62
2022/08/06 11:01:18;;;;;;;3.95;3.45;;;;;;;32.31;25.60;94669.25;4994262;28;20238;-62
2022/08/06 11:03:58;;;;;;;4.95;3.83;;;;;;;31.95;25.28;94664.38;4987403;28;20223;-61
2022/08/06 11:06:31;;;;;;;4.13;3.72;;;;;;;31.76;25.57;94661.63;4988827;28;20325;-61
2022/08/06 11:09:24;;;;;;;6.05;3.65;;;;;;;32.15;25.66;94665.97;4989321;28;20580;-62
2022/08/06 11:12:14;;;;;;;4.10;3.80;;;;;;;32.42;24.76;94664.44;4993866;28;20314;-62
2022/08/06 11:14:40;;;;;;;4.00;3.70;;;;;;;32.40;25.00;94662.03;4994158;28;20379;-62
2022/08/06 11:17:06;;;;;;;5.28;3.63;;;;;;;32.56;24.40;94661.78;4978110;28;20204;-61
2022/08/06 11:19:41;;;;;;;3.47;3.17;;;;;;;32.85;24.50;94653.34;5007750;28;20254;-62
2022/08/06 11:22:07;;;;;;;4.43;3.38;;;;;;;32.91;23.53;94647.53;4993067;28;20222;-62
2022/08/06 11:24:32;;;;;;;3.30;3.08;;;;;;;33.10;22.59;94646.66;4988861;28;20254;-61
2022/08/06 11:26:58;;;;;;;3.30;3.10;;;;;;;33.12;22.52;94645.25;4985204;28;20227;-61
2022/08/06 11:29:23;;;;;;;4.95;3.13;;;;;;;33.41;22.57;94649.53;4981357;28;20227;-62
2022/08/06 11:31:50;;;;;;;3.40;3.20;;;;;;;33.56;23.53;94648.44;5011571;28;20225;-61
2022/08/06 11:34:19;;;;;;;3.78;3.45;;;;;;;33.55;22.97;94647.66;4989677;28;20232;-61
2022/08/06 11:36:54;;;;;;;3.88;3.58;;;;;;;33.49;22.73;94643.38;4987068;28;20222;-61
2022/08/06 11:39:21;;;;;;;6.57;3.47;;;;;;;33.54;22.83;94640.56;4989178;28;20223;-62
2022/08/06 11:41:49;;;;;;;3.78;3.20;;;;;;;33.21;22.77;94652.72;4973741;28;20311;-61
2022/08/06 11:44:17;;;;;;;3.42;3.15;;;;;;;32.93;23.25;94656.22;4985102;28;20219;-61
2022/08/06 11:46:45;;;;;;;3.95;3.35;;;;;;;33.08;23.07;94644.22;4984703;28;20287;-64
2022/08/06 11:49:29;;;;;;;4.05;3.75;;;;;;;32.98;22.73;94651.75;4983940;28;20228;-62